Terminal Aerodrome Forecast
Issued by NWS Northern Indiana

Home | Current Version | Previous Version | Graphics & Text | Print | Product List | Glossary On
Versions: 1 2 3 4 5 6 7 8 9 10 11 12 13 14 15 16 17
000
FTUS43 KIWX 292008 AAA
TAFFWA
TAF AMD
KFWA 292008Z 2920/3018 07015KT P6SM BKN011 OVC016
      TEMPO 2921/3001 OVC008
     FM300200 07015KT 5SM BR VCTS OVC010CB
     FM300800 08011KT 5SM BR VCSH OVC008 WS020/19040KT
     FM301300 14012KT 6SM BR VCSH OVC010=

USA.gov is the U.S. government's official web portal to all federal, state and local government web resources and services.